Nearby METAR Reports

 

KPAE - Everett, Washington, USA
Distance from station: NW 15mi, 25km
Updated: 04/21/2018 4:53pm
Clear
Clear
 Wind from NNW
Wind: NNW 5 mph , 7 km/h
Temperature: 50°F , 10°C
Wind Chill: 48°F , 9°C
Dew Point: 37°F , 3°C
Humidity: 62%
Barometer: 30.42 inHg , 1030.1 hPa
Clouds: Clear
Visibility: 10 miles , 16 km
2018/04/21 23:53 KPAE 212353Z 33004KT 10SM CLR 10/03 A3042 RMK AO2 SLP302 T01000033 10111 20083 50005
KBFI - Seattle/Boeing, Washington, USA
Distance from station: SW 20mi, 31km
Updated: 04/21/2018 4:53pm
Overcast
Overcast
 Wind from SE
Wind: SE 5 mph , 7 km/h
Temperature: 55°F , 13°C
Dew Point: 36°F , 2°C
Humidity: 47%
Barometer: 30.41 inHg , 1029.8 hPa
Clouds: Overcast
Visibility: 10 miles , 16 km
Cloud details: Few Clouds 5000 ft
Partly cloudy 9500 ft
Overcast 15000 ft
2018/04/21 23:53 KBFI 212353Z 13004KT 10SM FEW050 SCT095 OVC150 13/02 A3041 RMK AO2 SLP296 60001 T01330022 10144 20100 50001 $
KSEA - Seattle/Metro, Washington, USA
Distance from station: SSW 25mi, 41km
Updated: 04/21/2018 4:53pm
Overcast
Overcast
 Wind from WSW
Wind: WSW 3 mph , 6 km/h
Temperature: 54°F , 12°C
Dew Point: 37°F , 3°C
Humidity: 54%
Barometer: 30.40 inHg , 1029.5 hPa
Clouds: Overcast
Visibility: 10 miles , 16 km
Cloud details: Few Clouds 3500 ft
Mostly cloudy 5000 ft
Overcast 6500 ft
2018/04/21 23:53 KSEA 212353Z 24003KT 10SM FEW035 BKN050 OVC065 12/03 A3040 RMK AO2 SLP302 60000 T01220033 10128 20100 50000
 
KAWO - Arlington Muni, Washington, USA
Distance from station: NNW 28mi, 46km
Updated: 04/21/2018 4:56pm
Clear
Clear
 Wind from NW
Wind: NW 7 mph , 11 km/h
Temperature: 54°F , 12°C
Dew Point: 37°F , 3°C
Humidity: 54%
Barometer: 30.42 inHg , 1030.1 hPa
Clouds: Clear
Visibility: 10 miles , 16 km
2018/04/21 23:56 KAWO 212356Z AUTO 31006KT 10SM CLR 12/03 A3042 RMK AO2 SLP307 T01170033 10133 20094 51006
KPWT - Bremerton Ntnl, Washington, USA
Distance from station: WSW 38mi, 61km
Updated: 04/21/2018 4:56pm
Partly cloudy
Partly cloudy
 Wind from ENE
Wind: ENE 10 mph , 17 km/h
Temperature: 54°F , 12°C
Dew Point: 37°F , 3°C
Humidity: 54%
Barometer: 30.40 inHg , 1029.5 hPa
Clouds: Partly cloudy
Visibility: 10 miles , 16 km
Cloud details: Partly cloudy 4100 ft
2018/04/21 23:56 KPWT 212356Z AUTO 06009KT 10SM SCT041 12/03 A3040 RMK AO2 SLP313 6//// T01170033 10139 20089 50007
KTIW - Tacoma, Washington, USA
Distance from station: SW 43mi, 69km
Updated: 04/21/2018 4:53pm
Partly cloudy
Partly cloudy
 Wind from WSW
Wind: WSW 10 mph , 17 km/h
Temperature: 54°F , 12°C
Dew Point: 37°F , 3°C
Humidity: 54%
Barometer: 30.40 inHg , 1029.5 hPa
Clouds: Partly cloudy
Visibility: 10 miles , 16 km
Cloud details: Partly cloudy 4500 ft
Partly cloudy 7000 ft
2018/04/21 23:53 KTIW 212353Z 24009KT 200V270 10SM SCT045 SCT070 12/03 A3040 RMK AO2 SLP296 T01170028 10133 20106 50006
 
KPLU - Puyallup/Thun, Washington, USA
Distance from station: SSW 47mi, 76km
Updated: 04/21/2018 5:35pm
Clear
Clear
 Wind from NW
Wind: NW 5 mph , 7 km/h, Gust: 12 mph , 19 km/h
Temperature: 55°F , 13°C
Dew Point: 36°F , 2°C
Humidity: 47%
Barometer: 30.40 inHg , 1029.5 hPa
Clouds: Clear
Visibility: 10 miles , 16 km
2018/04/22 00:35 KPLU 220035Z AUTO 32004G10KT 10SM CLR 13/02 A3040 RMK AO2
KSMP - Stampede Pass, Washington, USA
Distance from station: SE 47mi, 76km
Updated: 04/21/2018 5:01pm
Overcast
Overcast
 Wind from varies
Wind: varies 6 mph , 9 km/h
Temperature: 36°F , 2°C
Wind Chill: 31°F , -1°C
Dew Point: 30°F , -1°C
Humidity: 81%
Barometer: 30.31 inHg , 1026.4 hPa
Clouds: Overcast
Visibility: 10 miles , 16 km
Cloud details: Partly cloudy 1600 ft
Partly cloudy 2800 ft
Overcast 4700 ft
2018/04/22 00:01 KSMP 220001Z AUTO VRB05KT 10SM SCT016 SCT028 OVC047 02/M01 A3031 RMK AO2 T00171011
KNUW - Whidbey Is. Nas, Washington, USA
Distance from station: NW 49mi, 79km
Updated: 04/21/2018 4:56pm
Mostly cloudy
Mostly cloudy
 Wind from W
Wind: W 17 mph , 28 km/h, Gust: 23 mph , 37 km/h
Temperature: 54°F , 12°C
Dew Point: 39°F , 4°C
Humidity: 58%
Barometer: 30.44 inHg , 1030.8 hPa
Clouds: Mostly cloudy
Visibility: 10 miles , 16 km
Cloud details: Partly cloudy 3500 ft
Partly cloudy 8000 ft
Mostly cloudy 12000 ft
Mostly cloudy 25000 ft
2018/04/21 23:56 KNUW 212356Z 28015G20KT 10SM SCT035 SCT080 BKN120 BKN250 12/04 A3044 RMK AO2 SLP307 T01220044 10144 20111 50001 $
 
KBVS - Burlington/Mt V, Washington, USA
Distance from station: NNW 51mi, 83km
Updated: 04/21/2018 5:35pm
Clear
Clear
 Wind from varies
Wind: varies 5 mph , 7 km/h
Temperature: 54°F , 12°C
Dew Point: 36°F , 2°C
Humidity: 51%
Barometer: 30.41 inHg , 1029.8 hPa
Clouds: Clear
Visibility: 10 miles , 16 km
2018/04/22 00:35 KBVS 220035Z AUTO VRB04KT 10SM CLR 12/02 A3041 RMK A01
KSHN - Shelton, Washington, USA
Distance from station: SW 63mi, 101km
Updated: 04/21/2018 4:53pm
Clear
Clear
 Wind from SW
Wind: SW 13 mph , 20 km/h
Temperature: 54°F , 12°C
Dew Point: 37°F , 3°C
Humidity: 54%
Barometer: 30.39 inHg , 1029.1 hPa
Clouds: Clear
Visibility: 10 miles , 16 km
2018/04/21 23:53 KSHN 212353Z AUTO 23011KT 10SM CLR 12/03 A3039 RMK AO2 SLP294 T01220033 10139 20117 50002
KOLM - Olympia, Washington, USA
Distance from station: SW 68mi, 110km
Updated: 04/21/2018 4:54pm
Clear
Clear
 Wind from WNW
Wind: WNW 6 mph , 9 km/h
Temperature: 55°F , 13°C
Dew Point: 36°F , 2°C
Humidity: 47%
Barometer: 30.41 inHg , 1029.8 hPa
Clouds: Clear
Visibility: 10 miles , 16 km
2018/04/21 23:54 KOLM 212354Z 30005KT 10SM CLR 13/02 A3041 RMK AO2 SLP298 T01280022 10139 20106 50002
 
KCLM - Port Angeles, Washington, USA
Distance from station: WNW 72mi, 115km
Updated: 04/21/2018 4:53pm
Clear
Clear
 Wind from WNW
Wind: WNW 16 mph , 26 km/h, Gust: 24 mph , 39 km/h
Temperature: 48°F , 9°C
Wind Chill: 42°F , 6°C
Dew Point: 41°F , 5°C
Humidity: 76%
Barometer: 30.43 inHg , 1030.5 hPa
Clouds: Clear
Visibility: 10 miles , 16 km
2018/04/21 23:53 KCLM 212353Z AUTO 30014G21KT 10SM CLR 09/05 A3043 RMK AO2 SLP305 T00940050 10122 20094 51004
CWYJ - Victoria Univ, British Columbia, Canada
Distance from station: NW 75mi, 121km
Updated: 04/21/2018 5:00pm

 Wind from WSW
Wind: WSW 9 mph , 15 km/h, Gust: 17 mph , 28 km/h
Temperature: 54°F , 12°C
Dew Point: 32°F , 0°C
Humidity: 44%
2018/04/22 00:00 CWYJ 220000Z AUTO 24008G15KT 12/00 RMK AO1 PK WND 22020/2320 SLP292 T01210000 51000
KBLI - Bellingham, Washington, USA
Distance from station: NNW 75mi, 121km
Updated: 04/21/2018 4:53pm
Mostly cloudy
Mostly cloudy
 Wind from S
Wind: S 3 mph , 6 km/h
Temperature: 52°F , 11°C
Dew Point: 37°F , 3°C
Humidity: 58%
Barometer: 30.40 inHg , 1029.5 hPa
Clouds: Mostly cloudy
Visibility: 10 miles , 16 km
Cloud details: Partly cloudy 4400 ft
Mostly cloudy 10000 ft
2018/04/21 23:53 KBLI 212353Z 18003KT 10SM SCT044 BKN100 11/03 A3040 RMK AO2 SLP300 T01110033 10133 20106 53007